Time;durP1;ratioP1;P1;durP2;ratioP2;P2;SDS_P1;SDS_P2;PMS_P1;PMS_P2;Temp;Humidity;BMP_temperature;BMP_pressure;BME280_temperature;BME280_humidity;BME280_pressure;Samples;Min_cycle;Max_cycle;Signal;HPM_P1;HPM_P2
2022/08/02 00:01:17;;;;;;;;;;;;;;;19.31;81.39;152506.67;1676780;84;20453;-78
2022/08/02 00:03:44;;;;;;;;;;;;;;;19.35;81.16;152517.16;1676906;84;20135;-78
2022/08/02 00:06:10;;;;;;;;;;;;;;;19.38;81.09;152523.66;1677861;84;20860;-78
2022/08/02 00:08:37;;;;;;;;;;;;;;;19.36;80.97;152519.77;1678039;85;20226;-78
2022/08/02 00:11:04;;;;;;;;;;;;;;;19.34;80.95;152514.50;1675066;85;21250;-78
2022/08/02 00:13:30;;;;;;;;;;;;;;;19.31;81.08;152506.67;1667726;85;20528;-78
2022/08/02 00:15:57;;;;;;;;;;;;;;;19.32;81.15;152509.28;1667955;86;20199;-78
2022/08/02 00:18:24;;;;;;;;;;;;;;;19.32;81.17;152509.28;1680545;84;20427;-78
2022/08/02 00:20:50;;;;;;;;;;;;;;;19.30;81.25;152505.39;1714015;83;20107;-78
2022/08/02 00:23:17;;;;;;;;;;;;;;;19.30;81.18;152504.06;1714099;83;22104;-77
2022/08/02 00:25:44;;;;;;;;;;;;;;;19.26;81.21;152493.63;1713770;83;20156;-77
2022/08/02 00:28:10;;;;;;;;;;;;;;;19.22;81.03;152483.19;1714033;83;20191;-78
2022/08/02 00:30:37;;;;;;;;;;;;;;;19.15;80.97;152467.55;1713943;82;20468;-78
2022/08/02 00:33:04;;;;;;;;;;;;;;;19.10;81.09;152453.17;1714173;83;20150;-77
2022/08/02 00:35:31;;;;;;;;;;;;;;;19.02;81.24;152433.59;1713975;83;21285;-77
2022/08/02 00:37:58;;;;;;;;;;;;;;;18.96;81.62;152417.89;1713996;83;20182;-78
2022/08/02 00:40:25;;;;;;;;;;;;;;;18.90;81.77;152404.84;1714012;83;20175;-78
2022/08/02 00:43:05;;;;;;;;;;;;;;;18.83;82.02;152386.55;1714032;83;20199;-78
2022/08/02 00:45:35;;;;;;;;;;;;;;;18.76;82.42;152369.58;1713808;83;20424;-77
2022/08/02 00:48:02;;;;;;;;;;;;;;;18.72;82.91;152359.14;1714196;83;21228;-78
2022/08/02 00:50:29;;;;;;;;;;;;;;;18.69;83.20;152350.03;1702045;83;20170;-77
2022/08/02 00:52:56;;;;;;;;;;;;;;;18.68;83.57;152347.38;1717602;83;20167;-78
2022/08/02 00:55:22;;;;;;;;;;;;;;;18.65;83.72;152339.56;1717239;83;20459;-76
2022/08/02 00:57:49;;;;;;;;;;;;;;;18.63;84.02;152335.67;1715075;83;20186;-75
2022/08/02 01:00:16;;;;;;;;;;;;;;;18.61;84.18;152331.73;1713820;83;21245;-78
2022/08/02 01:02:43;;;;;;;;;;;;;;;18.60;84.42;152329.13;1713858;83;20175;-75
2022/08/02 01:05:09;;;;;;;;;;;;;;;18.60;84.75;152329.13;1704498;83;20212;-75
2022/08/02 01:07:37;;;;;;;;;;;;;;;18.59;84.96;152326.52;1686617;85;20137;-74
2022/08/02 01:10:04;;;;;;;;;;;;;;;18.57;84.97;152320.03;1687937;85;20169;-75
2022/08/02 01:12:32;;;;;;;;;;;;;;;18.55;85.16;152316.09;1742987;82;20502;-76
2022/08/02 01:15:00;;;;;;;;;;;;;;;18.55;85.40;152316.09;1748376;82;20264;-78
2022/08/02 01:17:33;;;;;;;;;;;;;;;18.54;85.47;152313.48;1738127;82;20207;-76
2022/08/02 01:20:21;;;;;;;;;;;;;;;18.55;85.44;152316.09;1695472;83;20202;-76
2022/08/02 01:23:14;;;;;;;;;;;;;;;18.56;85.38;152317.38;1691894;84;20155;-76
2022/08/02 01:25:51;;;;;;;;;;;;;;;18.55;85.37;152314.77;1692223;84;21722;-77
2022/08/02 01:28:36;;;;;;;;;;;;;;;18.51;85.45;152305.66;1692266;83;20190;-77
2022/08/02 01:31:21;;;;;;;;;;;;;;;18.48;85.64;152297.84;1685928;83;20182;-76
2022/08/02 01:33:55;;;;;;;;;;;;;;;18.45;85.85;152289.97;1704392;83;20145;-78
2022/08/02 01:36:22;;;;;;;;;;;;;;;18.45;86.13;152289.97;1712625;82;20438;-77
2022/08/02 01:38:49;;;;;;;;;;;;;;;18.46;86.48;152292.62;1692483;83;21255;-78
2022/08/02 01:41:21;;;;;;;;;;;;;;;18.44;86.77;152287.36;1712736;83;20206;-77
2022/08/02 01:43:50;;;;;;;;;;;;;;;18.42;86.96;152282.16;1712764;82;20101;-76
2022/08/02 01:46:17;;;;;;;;;;;;;;;18.44;87.08;152288.69;1712785;83;20878;-77
2022/08/02 01:48:44;;;;;;;;;;;;;;;18.44;87.19;152288.69;1712693;82;20201;-77
2022/08/02 01:51:12;;;;;;;;;;;;;;;18.46;87.24;152293.91;1712807;83;21259;-77
2022/08/02 01:53:38;;;;;;;;;;;;;;;18.48;87.29;152297.84;1712939;83;20201;-78
2022/08/02 01:56:05;;;;;;;;;;;;;;;18.51;87.25;152305.66;1712983;83;20184;-77
2022/08/02 01:58:34;;;;;;;;;;;;;;;18.54;87.37;152312.16;1712581;82;20458;-78
2022/08/02 02:01:01;;;;;;;;;;;;;;;18.57;87.36;152320.03;1713037;83;20173;-78
2022/08/02 02:03:28;;;;;;;;;;;;;;;18.58;87.45;152323.91;1712906;83;21300;-78
2022/08/02 02:05:56;;;;;;;;;;;;;;;18.60;87.51;152329.13;1697477;83;20177;-77
2022/08/02 02:08:32;;;;;;;;;;;;;;;18.62;87.62;152333.06;1688261;84;20173;-77
2022/08/02 02:10:59;;;;;;;;;;;;;;;18.64;87.66;152338.28;1695344;83;20218;-77
2022/08/02 02:13:26;;;;;;;;;;;;;;;18.67;87.59;152344.77;1716901;83;20183;-77
2022/08/02 02:15:52;;;;;;;;;;;;;;;18.69;87.59;152351.31;1717265;83;21135;-76
2022/08/02 02:18:26;;;;;;;;;;;;;;;18.72;87.39;152357.86;1723370;82;20448;-77
2022/08/02 02:20:53;;;;;;;;;;;;;;;18.73;87.25;152360.47;1733675;81;20246;-76
2022/08/02 02:23:19;;;;;;;;;;;;;;;18.76;87.28;152368.30;1733413;81;20191;-77
2022/08/02 02:25:46;;;;;;;;;;;;;;;18.75;87.21;152365.69;1733673;81;20147;-76
2022/08/02 02:28:28;;;;;;;;;;;;;;;18.74;87.27;152363.08;1733469;81;22074;-77
2022/08/02 02:30:54;;;;;;;;;;;;;;;18.72;87.54;152357.86;1732839;82;20248;-76
2022/08/02 02:33:21;;;;;;;;;;;;;;;18.72;87.57;152357.86;1733181;81;20499;-76
2022/08/02 02:35:49;;;;;;;;;;;;;;;18.73;87.70;152360.47;1733001;81;20169;-77
2022/08/02 02:38:18;;;;;;;;;;;;;;;18.73;87.80;152360.47;1733379;82;20190;-77
2022/08/02 02:40:45;;;;;;;;;;;;;;;18.74;88.09;152364.36;1733333;81;21249;-77
2022/08/02 02:43:12;;;;;;;;;;;;;;;18.77;88.19;152370.91;1733942;81;20661;-77
2022/08/02 02:45:39;;;;;;;;;;;;;;;18.78;88.35;152373.50;1733507;81;20222;-76
2022/08/02 02:48:06;;;;;;;;;;;;;;;18.77;88.77;152370.91;1733633;81;20203;-77
2022/08/02 02:50:33;;;;;;;;;;;;;;;18.75;89.06;152365.69;1733813;81;20464;-77
2022/08/02 02:52:59;;;;;;;;;;;;;;;18.75;89.28;152365.69;1733906;82;21138;-77
2022/08/02 02:55:26;;;;;;;;;;;;;;;18.74;89.57;152363.08;1733443;82;20590;-77
2022/08/02 02:57:53;;;;;;;;;;;;;;;18.74;89.61;152363.08;1733782;82;20124;-77
2022/08/02 03:01:26;;;;;;;;;;;;;;;18.74;89.75;152363.08;1733581;81;20570;-78
2022/08/02 03:02:48;;;;;;;;;;;;;;;18.74;89.90;152363.08;1730243;82;20144;-77
2022/08/02 03:05:14;;;;;;;;;;;;;;;18.74;90.13;152364.36;1725621;82;21231;-77
2022/08/02 03:07:41;;;;;;;;;;;;;;;18.80;90.22;152378.72;1712393;82;20122;-77
2022/08/02 03:10:09;;;;;;;;;;;;;;;18.85;90.06;152391.75;1712680;82;20209;-77
2022/08/02 03:12:35;;;;;;;;;;;;;;;18.92;90.02;152408.73;1732440;82;20380;-77
2022/08/02 03:15:07;;;;;;;;;;;;;;;19.01;89.87;152430.98;1733731;81;20162;-77
2022/08/02 03:17:42;;;;;;;;;;;;;;;19.11;89.48;152457.06;1732377;81;21100;-78
2022/08/02 03:20:11;;;;;;;;;;;;;;;19.21;89.05;152480.59;1711441;83;20457;-76
2022/08/02 03:22:38;;;;;;;;;;;;;;;19.30;88.45;152505.39;1709251;83;20212;-75
2022/08/02 03:25:06;;;;;;;;;;;;;;;19.36;88.06;152519.77;1707108;83;20181;-76
2022/08/02 03:27:33;;;;;;;;;;;;;;;19.43;87.78;152538.03;1706501;83;20117;-75
2022/08/02 03:29:59;;;;;;;;;;;;;;;19.47;87.44;152548.47;1706331;82;22142;-76
2022/08/02 03:32:26;;;;;;;;;;;;;;;19.53;87.21;152561.50;1706176;84;20185;-76
2022/08/02 03:34:54;;;;;;;;;;;;;;;19.58;87.00;152574.59;1706330;82;20134;-76
2022/08/02 03:37:20;;;;;;;;;;;;;;;19.60;86.82;152581.09;1706522;83;21209;-76
2022/08/02 03:39:47;;;;;;;;;;;;;;;19.64;86.65;152590.25;1706680;83;20150;-76
2022/08/02 03:42:14;;;;;;;;;;;;;;;19.70;86.65;152605.91;1707084;83;21756;-77
2022/08/02 03:44:41;;;;;;;;;;;;;;;19.80;86.46;152629.44;1706664;83;20451;-76
2022/08/02 03:47:07;;;;;;;;;;;;;;;19.88;85.72;152651.59;1706399;82;20193;-76
2022/08/02 03:49:34;;;;;;;;;;;;;;;19.91;85.31;152658.19;1706555;82;20129;-75
2022/08/02 03:52:01;;;;;;;;;;;;;;;19.95;84.89;152668.62;1706748;84;20208;-75
2022/08/02 03:54:27;;;;;;;;;;;;;;;20.00;84.62;152681.69;1706320;84;21247;-76
2022/08/02 03:56:54;;;;;;;;;;;;;;;20.06;84.13;152694.78;1706608;84;20146;-76
2022/08/02 03:59:21;;;;;;;;;;;;;;;20.08;83.91;152700.00;1706393;83;20573;-76
2022/08/02 04:01:47;;;;;;;;;;;;;;;20.10;83.83;152705.22;1706337;83;20174;-76
2022/08/02 04:04:14;;;;;;;;;;;;;;;20.11;83.60;152707.83;1706600;83;20221;-75
2022/08/02 04:06:40;;;;;;;;;;;;;;;20.14;83.62;152715.66;1690788;83;21137;-76
2022/08/02 04:09:08;;;;;;;;;;;;;;;20.19;83.48;152728.72;1693260;83;20153;-76
2022/08/02 04:11:35;;;;;;;;;;;;;;;20.24;83.35;152740.48;1680575;83;20175;-76
2022/08/02 04:14:05;;;;;;;;;;;;;;;20.32;83.25;152761.38;1676596;85;20448;-75
2022/08/02 04:16:49;;;;;;;;;;;;;;;20.38;82.74;152775.75;1676577;85;20524;-75
2022/08/02 04:19:28;;;;;;;;;;;;;;;20.42;82.41;152787.52;1720197;82;21240;-76
2022/08/02 04:21:55;;;;;;;;;;;;;;;20.46;82.33;152797.95;1731394;82;20144;-76
2022/08/02 04:24:27;;;;;;;;;;;;;;;20.54;81.97;152817.56;1730894;83;20460;-76
2022/08/02 04:26:57;;;;;;;;;;;;;;;20.60;81.65;152831.94;1730959;83;20513;-77
2022/08/02 04:29:24;;;;;;;;;;;;;;;20.68;81.10;152852.83;1731059;82;20416;-77
2022/08/02 04:31:50;;;;;;;;;;;;;;;20.76;80.69;152872.44;1730854;82;21250;-76
2022/08/02 04:34:18;;;;;;;;;;;;;;;20.85;80.26;152894.70;1730532;82;20621;-76
2022/08/02 04:36:44;;;;;;;;;;;;;;;20.96;79.59;152922.16;1730516;82;20429;-76
2022/08/02 04:39:11;;;;;;;;;;;;;;;21.13;79.10;152966.59;1730523;82;20206;-77
2022/08/02 04:41:42;;;;;;;;;;;;;;;21.33;78.13;153016.22;1730264;82;20436;-75
2022/08/02 04:44:09;;;;;;;;;;;;;;;21.52;77.30;153063.28;1731022;83;21154;-75
2022/08/02 04:46:36;;;;;;;;;;;;;;;21.71;76.81;153113.02;1729876;82;20183;-76
2022/08/02 04:49:03;;;;;;;;;;;;;;;21.94;75.98;153170.55;1730860;83;20186;-76
2022/08/02 04:51:30;;;;;;;;;;;;;;;22.16;75.05;153225.47;1730782;82;20187;-76
2022/08/02 04:53:56;;;;;;;;;;;;;;;22.39;74.06;153284.34;1731031;83;20148;-78
2022/08/02 04:56:23;;;;;;;;;;;;;;;22.55;73.09;153324.94;1731025;83;21227;-77
2022/08/02 04:58:50;;;;;;;;;;;;;;;22.68;72.52;153357.63;1729873;83;20447;-77
2022/08/02 05:01:17;;;;;;;;;;;;;;;22.82;71.95;153391.67;1730906;83;20243;-77
2022/08/02 05:03:43;;;;;;;;;;;;;;;22.91;71.39;153413.91;1730747;82;20211;-77
2022/08/02 05:06:10;;;;;;;;;;;;;;;23.05;71.13;153450.52;1712692;83;20193;-77
2022/08/02 05:08:37;;;;;;;;;;;;;;;23.20;70.55;153487.17;1711131;82;21253;-77
2022/08/02 05:11:04;;;;;;;;;;;;;;;23.32;70.02;153519.94;1713733;83;20175;-77
2022/08/02 05:13:31;;;;;;;;;;;;;;;23.45;69.70;153552.66;1752524;81;20237;-77
2022/08/02 05:16:00;;;;;;;;;;;;;;;23.55;69.22;153576.23;1744873;82;20454;-77
2022/08/02 05:18:27;;;;;;;;;;;;;;;23.69;69.23;153611.58;1732561;82;20209;-77
2022/08/02 05:20:54;;;;;;;;;;;;;;;23.89;68.61;153663.94;1704309;84;21262;-76
2022/08/02 05:23:20;;;;;;;;;;;;;;;24.09;68.13;153712.41;1719474;83;20212;-76
2022/08/02 05:25:47;;;;;;;;;;;;;;;24.21;67.19;153743.86;1719576;83;20623;-75
2022/08/02 05:28:14;;;;;;;;;;;;;;;24.27;67.06;153759.56;1719364;83;20211;-76
2022/08/02 05:30:41;;;;;;;;;;;;;;;24.44;67.07;153801.47;1719391;83;20203;-76
2022/08/02 05:33:07;;;;;;;;;;;;;;;24.65;66.59;153853.81;1719442;83;21328;-76
2022/08/02 05:35:34;;;;;;;;;;;;;;;24.80;65.55;153893.17;1719490;83;20205;-74
2022/08/02 05:38:01;;;;;;;;;;;;;;;24.85;64.94;153904.97;1719717;83;20200;-75
2022/08/02 05:40:28;;;;;;;;;;;;;;;24.88;65.21;153912.83;1719437;83;20204;-75
2022/08/02 05:42:56;;;;;;;;;;;;;;;25.06;64.95;153957.38;1719638;83;20133;-75
2022/08/02 05:45:23;;;;;;;;;;;;;;;25.30;64.65;154018.92;1719820;83;21501;-76
2022/08/02 05:47:50;;;;;;;;;;;;;;;25.51;63.82;154072.72;1719447;83;20210;-76
2022/08/02 05:50:16;;;;;;;;;;;;;;;25.61;63.20;154097.63;1719632;83;20204;-76
2022/08/02 05:52:52;;;;;;;;;;;;;;;25.64;62.62;154104.14;1719577;83;20173;-76
2022/08/02 05:55:32;;;;;;;;;;;;;;;25.55;62.33;154083.19;1719615;83;20466;-60
2022/08/02 05:58:12;;;;;;;;;;;;;;;25.49;62.46;154067.48;1719512;83;21204;-59
2022/08/02 06:00:39;;;;;;;;;;;;;;;25.52;62.10;154074.00;1719484;83;20461;-59
2022/08/02 06:03:16;;;;;;;;;;;;;;;25.62;62.13;154100.23;1719724;83;20124;-59
2022/08/02 06:05:46;;;;;;;;;;;;;;;25.80;61.69;154144.80;1717559;83;20193;-59
2022/08/02 06:08:13;;;;;;;;;;;;;;;25.96;60.95;154186.70;1712655;82;20222;-58
2022/08/02 06:10:40;;;;;;;;;;;;;;;26.16;60.06;154236.52;1718391;82;21245;-58
2022/08/02 06:13:11;;;;;;;;;;;;;;;26.25;59.53;154260.20;1713475;83;20371;-59
2022/08/02 06:15:38;;;;;;;;;;;;;;;26.36;58.89;154287.72;1717238;82;20204;-60
2022/08/02 06:18:05;;;;;;;;;;;;;;;26.44;58.05;154308.69;1717282;82;20173;-59
2022/08/02 06:20:36;;;;;;;;;;;;;;;26.55;57.62;154334.94;1717198;82;20253;-59
2022/08/02 06:23:07;;;;;;;;;;;;;;;26.68;57.30;154369.00;1687547;84;21737;-59
2022/08/02 06:25:36;;;;;;;;;;;;;;;26.84;57.10;154409.64;1693790;84;20174;-59
2022/08/02 06:28:04;;;;;;;;;;;;;;;27.05;56.39;154462.14;1687833;84;20154;-60
2022/08/02 06:30:31;;;;;;;;;;;;;;;27.23;55.30;154506.75;1690036;84;20190;-60
2022/08/02 06:32:59;;;;;;;;;;;;;;;27.25;54.63;154511.98;1665783;85;20183;-60
2022/08/02 06:35:29;;;;;;;;;;;;;;;27.31;54.51;154527.77;1674034;85;21258;-60
2022/08/02 06:37:58;;;;;;;;;;;;;;;27.46;54.29;154565.80;1669541;85;20165;-60
2022/08/02 06:40:47;;;;;;;;;;;;;;;27.64;53.97;154611.75;1676898;85;20203;-60
2022/08/02 06:43:32;;;;;;;;;;;;;;;27.83;53.75;154658.98;1664505;83;20173;-59
2022/08/02 06:45:59;;;;;;;;;;;;;;;28.02;53.13;154707.52;1669613;83;20167;-59
2022/08/02 06:48:26;;;;;;;;;;;;;;;28.19;51.32;154750.91;1670632;84;21214;-58
2022/08/02 06:50:52;;;;;;;;;;;;;;;28.19;51.41;154749.56;1674501;82;20219;-58
2022/08/02 06:53:19;;;;;;;;;;;;;;;28.30;51.19;154779.75;1672128;84;20175;-58
2022/08/02 06:55:46;;;;;;;;;;;;;;;28.43;50.92;154811.28;1671255;82;20179;-58
2022/08/02 06:58:13;;;;;;;;;;;;;;;28.55;50.94;154842.75;1657454;85;20262;-59
2022/08/02 07:00:41;;;;;;;;;;;;;;;28.73;50.57;154887.39;1679355;82;23368;-58
2022/08/02 07:03:07;;;;;;;;;;;;;;;28.89;50.06;154928.13;1669754;84;20175;-77
2022/08/02 07:05:34;;;;;;;;;;;;;;;28.99;49.84;154954.41;1651765;85;20215;-60
2022/08/02 07:08:03;;;;;;;;;;;;;;;29.13;49.28;154989.84;1674038;82;21729;-77
2022/08/02 07:10:30;;;;;;;;;;;;;;;29.22;49.01;155010.84;1671275;85;20211;-77
2022/08/02 07:12:57;;;;;;;;;;;;;;;29.30;48.96;155031.88;1683465;82;22189;-78
2022/08/02 07:15:23;;;;;;;;;;;;;;;29.43;48.86;155066.03;1685297;82;20160;-78
2022/08/02 07:17:50;;;;;;;;;;;;;;;29.47;48.61;155073.91;1682149;82;20132;-79
2022/08/02 07:20:16;;;;;;;;;;;;;;;29.45;49.21;155071.28;1672825;83;21488;-78
2022/08/02 07:22:43;;;;;;;;;;;;;;;29.42;49.92;155062.12;1714045;80;20229;-78
2022/08/02 07:25:10;;;;;;;;;;;;;;;29.38;50.28;155052.88;1704169;81;21155;-78
2022/08/02 07:27:37;;;;;;;;;;;;;;;29.37;49.14;155048.91;1717345;81;20663;-77
2022/08/02 07:30:05;;;;;;;;;;;;;;;29.16;49.52;154997.72;1691476;84;20268;-77
2022/08/02 07:32:32;;;;;;;;;;;;;;;28.96;50.26;154946.53;1698702;84;20167;-78
2022/08/02 07:34:59;;;;;;;;;;;;;;;29.02;50.58;154960.94;1692318;84;20174;-78
2022/08/02 07:37:28;;;;;;;;;;;;;;;29.08;50.21;154975.39;1680644;84;21204;-78
2022/08/02 07:39:55;;;;;;;;;;;;;;;29.00;50.54;154955.69;1686671;84;20146;-76
2022/08/02 07:42:43;;;;;;;;;;;;;;;29.11;49.76;154984.59;1679351;84;20184;-78
2022/08/02 07:45:11;;;;;;;;;;;;;;;29.04;48.97;154966.19;1700665;84;20149;-78
2022/08/02 07:47:40;;;;;;;;;;;;;;;29.04;48.76;154966.19;1700478;84;20261;-59
2022/08/02 07:50:08;;;;;;;;;;;;;;;29.11;48.80;154984.59;1694875;84;21309;-59
2022/08/02 07:52:35;;;;;;;;;;;;;;;29.24;47.84;155016.08;1692248;84;20283;-78
2022/08/02 07:55:02;;;;;;;;;;;;;;;29.34;47.20;155041.03;1681611;84;20204;-78
2022/08/02 07:57:30;;;;;;;;;;;;;;;29.47;46.38;155075.25;1684990;84;20475;-59
2022/08/02 07:59:56;;;;;;;;;;;;;;;29.53;46.16;155091.00;1677717;84;20102;-58
2022/08/02 08:02:26;;;;;;;;;;;;;;;29.64;46.17;155117.28;1687911;84;21052;-59
2022/08/02 08:04:52;;;;;;;;;;;;;;;29.79;46.01;155156.66;1682549;84;20230;-59
2022/08/02 08:07:22;;;;;;;;;;;;;;;29.74;45.67;155143.53;1701179;84;32580;-59
2022/08/02 08:09:49;;;;;;;;;;;;;;;29.68;45.66;155129.06;1680199;84;20507;-59
2022/08/02 08:12:17;;;;;;;;;;;;;;;29.56;45.85;155097.58;1683855;84;20201;-77
2022/08/02 08:14:44;;;;;;;;;;;;;;;29.48;46.21;155076.53;1687275;84;21405;-59
2022/08/02 08:17:10;;;;;;;;;;;;;;;29.44;46.21;155068.66;1692437;84;20206;-78
2022/08/02 08:19:37;;;;;;;;;;;;;;;29.55;46.21;155094.95;1683542;84;20246;-60
2022/08/02 08:22:04;;;;;;;;;;;;;;;29.68;46.27;155129.06;1701874;83;20209;-60
2022/08/02 08:24:31;;;;;;;;;;;;;;;29.87;45.97;155176.36;1706660;83;20224;-59
2022/08/02 08:26:58;;;;;;;;;;;;;;;29.99;45.47;155207.91;1703443;83;21251;-60
2022/08/02 08:29:25;;;;;;;;;;;;;;;30.02;45.26;155214.50;1705515;83;20183;-60
2022/08/02 08:31:52;;;;;;;;;;;;;;;30.19;45.46;155257.88;1705352;83;20509;-78
2022/08/02 08:34:19;;;;;;;;;;;;;;;30.52;45.27;155341.94;1704374;83;20213;-78
2022/08/02 08:36:45;;;;;;;;;;;;;;;30.71;44.66;155390.59;1706449;83;20185;-77
2022/08/02 08:39:12;;;;;;;;;;;;;;;30.60;44.41;155361.66;1703903;83;21342;-77
2022/08/02 08:41:41;;;;;;;;;;;;;;;30.48;44.49;155330.09;1706631;83;20205;-77
2022/08/02 08:44:08;;;;;;;;;;;;;;;30.26;45.17;155276.25;1703880;83;20174;-76
2022/08/02 08:46:36;;;;;;;;;;;;;;;30.21;45.93;155263.13;1701502;84;20181;-59
2022/08/02 08:49:21;;;;;;;;;;;;;;;30.34;46.14;155294.63;1702310;84;20445;-59
2022/08/02 08:51:48;;;;;;;;;;;;;;;30.45;45.91;155323.56;1642931;87;21300;-58
2022/08/02 08:54:15;;;;;;;;;;;;;;;30.43;46.23;155318.31;1683044;83;20225;-59
2022/08/02 08:56:42;;;;;;;;;;;;;;;30.51;46.37;155338.03;1695631;84;20222;-59
2022/08/02 08:59:09;;;;;;;;;;;;;;;30.72;45.85;155391.94;1697576;83;20249;-59
2022/08/02 09:01:36;;;;;;;;;;;;;;;30.82;45.72;155416.89;1704611;83;20189;-59
2022/08/02 09:04:03;;;;;;;;;;;;;;;30.91;45.63;155439.25;1700439;83;21341;-59
2022/08/02 09:06:30;;;;;;;;;;;;;;;30.91;45.59;155439.25;1689259;83;20446;-59
2022/08/02 09:08:57;;;;;;;;;;;;;;;31.12;45.33;155493.11;1695476;83;20175;-59
2022/08/02 09:11:24;;;;;;;;;;;;;;;31.46;44.96;155579.94;1687426;84;20171;-59
2022/08/02 09:13:56;;;;;;;;;;;;;;;31.89;43.36;155689.08;1702295;83;20201;-59
2022/08/02 09:16:34;;;;;;;;;;;;;;;31.77;43.08;155658.84;1705924;83;21298;-59
2022/08/02 09:19:21;;;;;;;;;;;;;;;31.58;43.15;155610.17;1706838;82;20199;-59
2022/08/02 09:21:50;;;;;;;;;;;;;;;31.55;43.18;155602.28;1692772;83;20461;-59
2022/08/02 09:24:21;;;;;;;;;;;;;;;31.64;43.06;155624.64;1673014;84;20424;-59
2022/08/02 09:26:48;;;;;;;;;;;;;;;31.82;42.76;155670.69;1673402;85;20262;-60
2022/08/02 09:29:16;;;;;;;;;;;;;;;31.98;42.62;155712.78;1674033;85;21256;-59
2022/08/02 09:31:42;;;;;;;;;;;;;;;31.91;41.86;155694.34;1672156;85;20183;-60
2022/08/02 09:34:09;;;;;;;;;;;;;;;31.51;42.44;155593.06;1666610;84;20192;-58
2022/08/02 09:36:38;;;;;;;;;;;;;;;31.14;43.08;155499.69;1672417;85;20217;-59
2022/08/02 09:39:06;;;;;;;;;;;;;;;30.90;43.46;155436.63;1668733;85;20200;-60
2022/08/02 09:41:35;;;;;;;;;;;;;;;30.83;43.48;155420.81;1675206;85;21245;-60
2022/08/02 09:44:05;;;;;;;;;;;;;;;30.88;43.62;155432.66;1668575;85;20230;-58
2022/08/02 09:46:36;;;;;;;;;;;;;;;30.73;44.35;155394.56;1663114;84;20207;-59
2022/08/02 09:49:05;;;;;;;;;;;;;;;30.59;47.96;155359.03;1668068;85;20217;-59
2022/08/02 09:51:34;;;;;;;;;;;;;;;30.49;50.02;155334.06;1661912;84;20168;-59
2022/08/02 09:54:02;;;;;;;;;;;;;;;30.25;51.43;155273.63;1673873;85;21244;-58
2022/08/02 09:56:42;;;;;;;;;;;;;;;29.92;52.33;155189.48;1660904;85;20180;-60
2022/08/02 09:59:09;;;;;;;;;;;;;;;29.65;52.90;155121.19;1667667;85;20187;-60
2022/08/02 10:01:36;;;;;;;;;;;;;;;29.39;53.44;155054.16;1668924;84;20228;-59
2022/08/02 10:04:05;;;;;;;;;;;;;;;29.15;53.84;154993.75;1673792;83;20500;-59
2022/08/02 10:06:32;;;;;;;;;;;;;;;28.99;54.36;154953.06;1668625;84;21134;-59
2022/08/02 10:08:59;;;;;;;;;;;;;;;28.94;54.33;154939.95;1642155;86;20183;-59
2022/08/02 10:11:27;;;;;;;;;;;;;;;28.93;54.43;154937.33;1608282;87;20163;-59
2022/08/02 10:13:54;;;;;;;;;;;;;;;29.01;53.58;154958.31;1622155;86;20153;-58
2022/08/02 10:16:24;;;;;;;;;;;;;;;29.12;53.53;154985.89;1611760;87;20500;-58
2022/08/02 10:18:53;;;;;;;;;;;;;;;29.37;53.41;155050.25;1611806;87;21156;-59
2022/08/02 10:21:41;;;;;;;;;;;;;;;29.59;53.23;155106.73;1602815;88;20230;-59
2022/08/02 10:24:09;;;;;;;;;;;;;;;29.63;53.11;155114.66;1653781;84;20135;-58
2022/08/02 10:26:42;;;;;;;;;;;;;;;29.50;53.28;155081.78;1710898;82;20250;-59
2022/08/02 10:29:09;;;;;;;;;;;;;;;29.34;53.15;155041.03;1700182;83;20180;-58
2022/08/02 10:31:38;;;;;;;;;;;;;;;29.27;53.40;155023.95;1684644;85;21338;-58
2022/08/02 10:34:07;;;;;;;;;;;;;;;29.34;53.42;155041.03;1701701;83;20517;-59
2022/08/02 10:36:34;;;;;;;;;;;;;;;29.47;53.36;155073.91;1706060;83;20181;-76
2022/08/02 10:39:01;;;;;;;;;;;;;;;29.51;53.27;155084.41;1686672;83;20497;-76
2022/08/02 10:41:47;;;;;;;;;;;;;;;29.56;52.61;155097.58;1691785;84;20181;-77
2022/08/02 10:44:26;;;;;;;;;;;;;;;29.72;52.52;155138.28;1709458;84;21196;-76
2022/08/02 10:47:16;;;;;;;;;;;;;;;29.84;51.98;155169.83;1676455;85;20464;-76
2022/08/02 10:49:52;;;;;;;;;;;;;;;29.91;51.41;155186.86;1709158;84;20441;-58
2022/08/02 10:52:22;;;;;;;;;;;;;;;29.97;51.01;155202.66;1709231;84;20462;-58
2022/08/02 10:55:00;;;;;;;;;;;;;;;30.06;50.62;155223.70;1668866;83;20176;-77
2022/08/02 10:57:29;;;;;;;;;;;;;;;30.10;50.16;155234.20;1663374;86;21826;-59
2022/08/02 11:00:14;;;;;;;;;;;;;;;30.14;49.79;155246.05;1706747;82;20411;-59
2022/08/02 11:02:42;;;;;;;;;;;;;;;30.21;49.28;155261.78;1686662;84;20205;-59
2022/08/02 11:05:28;;;;;;;;;;;;;;;30.35;48.72;155298.59;1700799;84;20470;-59
2022/08/02 11:07:54;;;;;;;;;;;;;;;30.45;48.54;155324.84;1654282;85;20457;-58
2022/08/02 11:10:30;;;;;;;;;;;;;;;30.53;48.53;155344.56;1700364;82;21219;-59
2022/08/02 11:13:02;;;;;;;;;;;;;;;30.49;48.00;155334.06;1695534;83;20126;-60
2022/08/02 11:15:29;;;;;;;;;;;;;;;30.36;47.33;155299.89;1697639;83;20176;-60
2022/08/02 11:17:57;;;;;;;;;;;;;;;30.18;47.99;155255.25;1716523;82;20175;-78
2022/08/02 11:20:25;;;;;;;;;;;;;;;30.09;49.16;155231.58;1732639;82;20475;-60
2022/08/02 11:22:53;;;;;;;;;;;;;;;30.00;49.23;155210.53;1714138;82;21146;-59
2022/08/02 11:25:30;;;;;;;;;;;;;;;29.91;49.22;155185.56;1690269;84;20189;-60
2022/08/02 11:27:59;;;;;;;;;;;;;;;29.81;49.23;155160.61;1678189;84;20408;-59
2022/08/02 11:30:26;;;;;;;;;;;;;;;29.67;49.08;155126.44;1682487;84;20470;-59
2022/08/02 11:32:56;;;;;;;;;;;;;;;29.57;49.36;155101.48;1696175;84;20186;-59
2022/08/02 11:35:23;;;;;;;;;;;;;;;29.54;49.76;155092.33;1682401;84;21235;-59
2022/08/02 11:37:50;;;;;;;;;;;;;;;29.50;50.52;155081.78;1673905;85;20242;-59
2022/08/02 11:40:17;;;;;;;;;;;;;;;29.44;50.18;155068.66;1669856;85;20183;-76
2022/08/02 11:42:44;;;;;;;;;;;;;;;29.38;51.84;155052.88;1660188;85;20980;-76
2022/08/02 11:45:13;;;;;;;;;;;;;;;28.94;53.58;154939.95;1646602;85;20202;-76
2022/08/02 11:47:50;;;;;;;;;;;;;;;28.35;56.03;154791.58;1690930;83;22141;-77
2022/08/02 11:50:19;;;;;;;;;;;;;;;27.59;58.26;154599.92;1703727;84;20147;-59
2022/08/02 11:52:46;;;;;;;;;;;;;;;27.03;59.73;154458.23;1692015;84;20197;-76
2022/08/02 11:55:16;;;;;;;;;;;;;;;26.71;61.48;154375.56;1691649;84;20183;-59
2022/08/02 11:57:41;;;;;;;;;;;;;;;26.54;62.71;154333.59;1705184;84;20491;-59
2022/08/02 12:00:15;;;;;;;;;;;;;;;26.59;63.90;154346.70;1707437;84;20674;-59
2022/08/02 12:02:47;;;;;;;;;;;;;;;26.76;64.14;154388.67;1696223;84;21056;-59
2022/08/02 12:05:21;;;;;;;;;;;;;;;26.94;63.26;154433.31;1708005;84;20227;-59
2022/08/02 12:07:47;;;;;;;;;;;;;;;27.07;62.89;154466.09;1692639;84;20672;-59
2022/08/02 12:10:19;;;;;;;;;;;;;;;27.23;62.66;154506.75;1702509;84;20174;-59
2022/08/02 12:12:51;;;;;;;;;;;;;;;27.37;60.59;154542.16;1696122;84;21233;-60
2022/08/02 12:15:43;;;;;;;;;;;;;;;27.38;57.89;154546.11;1663966;85;20529;-59
2022/08/02 12:20:56;;;;;;;;;;;;;;;27.32;58.06;154530.38;1648758;85;20110;-59
2022/08/02 12:23:23;;;;;;;;;;;;;;;27.31;56.28;154527.77;1661148;85;20187;-59
2022/08/02 12:26:06;;;;;;;;;;;;;;;27.15;56.77;154487.06;1661945;85;21213;-60
2022/08/02 12:28:38;;;;;;;;;;;;;;;27.03;58.19;154456.91;1655773;85;20537;-59
2022/08/02 12:31:02;;;;;;;;;;;;;;;27.04;59.22;154459.52;1680411;85;20453;-59
2022/08/02 12:33:45;;;;;;;;;;;;;;;27.07;57.24;154467.39;1680185;85;20270;-58
2022/08/02 12:36:19;;;;;;;;;;;;;;;26.98;58.05;154443.80;1695293;84;20202;-60
2022/08/02 12:38:57;;;;;;;;;;;;;;;26.81;60.13;154400.48;1683772;84;21988;-60
2022/08/02 12:41:24;;;;;;;;;;;;;;;26.43;61.06;154306.06;1700743;83;20183;-60
2022/08/02 12:43:51;;;;;;;;;;;;;;;25.94;61.37;154181.47;1688458;84;20177;-60
2022/08/02 12:46:20;;;;;;;;;;;;;;;25.56;63.39;154085.81;1663496;85;20238;-59
2022/08/02 12:48:47;;;;;;;;;;;;;;;25.11;70.09;153971.80;1655773;84;20229;-58